createdAt,value
2024-03-06T00:02:24.713Z,83.57
2024-03-06T00:04:51.570Z,83.64
2024-03-06T00:07:18.302Z,82.65
2024-03-06T00:09:45.860Z,81.97
2024-03-06T00:12:12.561Z,82.40
2024-03-06T00:14:40.517Z,83.45
2024-03-06T00:17:08.327Z,82.72
2024-03-06T00:19:35.412Z,82.35
2024-03-06T00:22:02.423Z,83.17
2024-03-06T00:24:29.326Z,82.83
2024-03-06T00:26:56.006Z,81.96
2024-03-06T00:29:22.604Z,81.96
2024-03-06T00:31:50.547Z,82.27
2024-03-06T00:34:17.191Z,81.42
2024-03-06T00:36:44.726Z,81.86
2024-03-06T00:39:11.477Z,82.14
2024-03-06T00:41:38.282Z,81.90
2024-03-06T00:44:05.138Z,83.14
2024-03-06T00:46:31.724Z,82.74
2024-03-06T00:48:59.718Z,82.54
2024-03-06T00:51:36.629Z,82.39
2024-03-06T00:54:08.315Z,81.98
2024-03-06T00:56:38.556Z,82.10
2024-03-06T00:59:05.192Z,82.00
2024-03-06T01:01:31.867Z,82.37
2024-03-06T01:03:59.828Z,81.55
2024-03-06T01:06:26.372Z,81.71
2024-03-06T01:08:53.035Z,81.53
2024-03-06T01:11:19.674Z,81.25
2024-03-06T01:13:46.368Z,82.01
2024-03-06T01:16:13.010Z,81.34
2024-03-06T01:18:39.583Z,81.23
2024-03-06T01:21:07.533Z,80.91
2024-03-06T01:23:34.162Z,81.19
2024-03-06T01:26:00.830Z,81.50
2024-03-06T01:28:27.385Z,81.88
2024-03-06T01:30:54.103Z,82.27
2024-03-06T01:33:20.819Z,82.19
2024-03-06T01:35:47.445Z,81.70
2024-03-06T01:38:16.985Z,81.96
2024-03-06T01:40:44.650Z,81.74
2024-03-06T01:43:20.358Z,81.25
2024-03-06T01:45:48.174Z,81.36
2024-03-06T01:48:15.181Z,81.14
2024-03-06T01:50:42.036Z,82.40
2024-03-06T01:53:09.296Z,81.97
2024-03-06T01:55:37.437Z,82.80
2024-03-06T01:58:04.779Z,83.10
2024-03-06T02:00:31.519Z,82.98
2024-03-06T02:02:58.114Z,82.85
2024-03-06T02:05:24.769Z,82.52
2024-03-06T02:07:53.949Z,81.81
2024-03-06T02:10:20.549Z,81.86
2024-03-06T02:12:50.015Z,82.27
2024-03-06T02:15:16.854Z,82.08
2024-03-06T02:17:43.480Z,83.36
2024-03-06T02:20:13.513Z,82.55
2024-03-06T02:22:41.699Z,82.17
2024-03-06T02:25:08.492Z,82.33
2024-03-06T02:27:35.088Z,82.39
2024-03-06T02:30:01.647Z,82.56
2024-03-06T02:32:28.442Z,83.24
2024-03-06T02:34:55.031Z,83.22
2024-03-06T02:37:21.677Z,82.94
2024-03-06T02:39:49.709Z,83.72
2024-03-06T02:42:16.312Z,83.45
2024-03-06T02:44:42.913Z,82.88
2024-03-06T02:47:09.769Z,82.93
2024-03-06T02:49:36.520Z,82.60
2024-03-06T02:52:03.527Z,82.08
2024-03-06T02:54:30.335Z,82.37
2024-03-06T02:56:58.343Z,82.73
2024-03-06T02:59:25.456Z,82.41
2024-03-06T03:01:52.003Z,82.80
2024-03-06T03:04:19.457Z,83.77
2024-03-06T03:06:45.966Z,82.92
2024-03-06T03:09:13.054Z,83.21
2024-03-06T03:11:39.850Z,83.10
2024-03-06T03:14:07.959Z,83.31
2024-03-06T03:16:34.732Z,83.00
2024-03-06T03:19:01.431Z,82.72
2024-03-06T03:21:27.994Z,82.89
2024-03-06T03:23:54.620Z,84.09
2024-03-06T03:26:21.887Z,82.98
2024-03-06T03:28:49.676Z,83.06
2024-03-06T03:31:17.640Z,82.95
2024-03-06T03:33:44.563Z,82.48
2024-03-06T03:36:11.216Z,82.08
2024-03-06T03:38:41.135Z,81.88
2024-03-06T03:41:08.971Z,81.60
2024-03-06T03:43:35.611Z,81.78
2024-03-06T03:46:02.180Z,82.24
2024-03-06T03:48:30.079Z,82.46
2024-03-06T03:50:56.668Z,82.53
2024-03-06T03:53:23.393Z,82.84
2024-03-06T03:55:49.972Z,82.22
2024-03-06T03:58:16.563Z,82.12
2024-03-06T04:00:43.670Z,82.57
2024-03-06T04:03:10.188Z,83.19
2024-03-06T04:05:38.182Z,83.21
2024-03-06T04:08:07.529Z,83.33
2024-03-06T04:10:34.874Z,83.13
2024-03-06T04:13:01.596Z,83.48
2024-03-06T04:15:28.251Z,83.01
2024-03-06T04:17:54.876Z,82.60
2024-03-06T04:20:21.484Z,82.83
2024-03-06T04:22:51.947Z,83.01
2024-03-06T04:25:19.119Z,83.16
2024-03-06T04:27:45.952Z,83.03
2024-03-06T04:30:15.959Z,82.27
2024-03-06T04:32:42.585Z,82.85
2024-03-06T04:35:12.961Z,83.99
2024-03-06T04:37:40.210Z,83.05
2024-03-06T04:40:09.769Z,82.98
2024-03-06T04:42:39.365Z,83.27
2024-03-06T04:45:12.193Z,83.45
2024-03-06T04:47:39.102Z,84.10
2024-03-06T04:50:09.581Z,83.79
2024-03-06T04:52:36.298Z,83.82
2024-03-06T04:55:04.144Z,83.71
2024-03-06T04:57:32.077Z,82.86
2024-03-06T04:59:59.595Z,82.90
2024-03-06T05:02:28.652Z,82.54
2024-03-06T05:59:49.621Z,82.71
2024-03-06T06:02:17.578Z,83.02
2024-03-06T06:04:51.746Z,82.31
2024-03-06T06:07:26.945Z,83.10
2024-03-06T06:09:53.546Z,82.77
2024-03-06T06:12:20.096Z,83.32
2024-03-06T06:14:46.616Z,83.11
2024-03-06T06:17:16.619Z,82.43
2024-03-06T06:19:45.059Z,83.09
2024-03-06T06:22:13.525Z,82.43
2024-03-06T06:24:40.257Z,81.84
2024-03-06T06:27:06.845Z,82.34
2024-03-06T06:29:33.516Z,82.30
2024-03-06T06:32:00.134Z,82.20
2024-03-06T06:34:29.708Z,82.87
2024-03-06T06:36:57.629Z,82.61
2024-03-06T06:39:24.231Z,83.20
2024-03-06T06:41:50.830Z,82.74
2024-03-06T06:44:17.495Z,82.81
2024-03-06T06:46:44.106Z,83.35
2024-03-06T06:49:10.723Z,82.59
2024-03-06T06:51:37.329Z,83.15
2024-03-06T06:54:05.445Z,81.82
2024-03-06T06:56:32.279Z,81.82
2024-03-06T06:58:59.059Z,82.96
2024-03-06T07:01:25.760Z,82.96
2024-03-06T07:03:53.071Z,82.09
2024-03-06T07:06:19.688Z,83.46
2024-03-06T07:08:46.406Z,83.26
2024-03-06T07:11:14.537Z,84.52
2024-03-06T07:13:41.212Z,84.29
2024-03-06T07:16:08.252Z,85.76
2024-03-06T07:18:34.945Z,85.52
2024-03-06T07:21:02.028Z,84.66
2024-03-06T07:23:28.625Z,84.36
2024-03-06T07:25:55.638Z,83.92
2024-03-06T07:28:23.568Z,83.75
2024-03-06T07:30:50.133Z,83.37
2024-03-06T07:33:16.736Z,85.02
2024-03-06T07:35:43.343Z,83.97
2024-03-06T07:38:10.989Z,83.42
2024-03-06T07:40:37.582Z,83.31
2024-03-06T07:43:05.331Z,84.14
2024-03-06T07:45:33.328Z,83.86
2024-03-06T07:47:59.962Z,83.55
2024-03-06T07:50:27.628Z,83.56
2024-03-06T07:52:55.843Z,83.33
2024-03-06T07:55:23.155Z,82.90
2024-03-06T07:57:49.779Z,83.97
2024-03-06T08:00:16.984Z,83.70
2024-03-06T08:02:44.967Z,83.86
2024-03-06T08:05:13.567Z,83.38
2024-03-06T08:07:42.967Z,83.19
2024-03-06T08:10:10.599Z,82.93
2024-03-06T08:12:37.240Z,82.68
2024-03-06T08:15:04.370Z,81.13
2024-03-06T08:17:31.019Z,79.79
2024-03-06T08:19:59.004Z,77.29
2024-03-06T08:22:25.528Z,73.94
2024-03-06T08:24:52.136Z,71.94
2024-03-06T08:27:18.719Z,66.31
2024-03-06T08:29:45.419Z,66.18
2024-03-06T08:32:12.157Z,64.19
2024-03-06T08:34:38.807Z,64.23
2024-03-06T08:37:07.278Z,61.34
2024-03-06T08:39:33.931Z,59.78
2024-03-06T08:42:01.483Z,60.17
2024-03-06T08:44:29.250Z,61.88
2024-03-06T08:46:55.898Z,61.59
2024-03-06T08:49:22.558Z,63.45
2024-03-06T08:51:49.140Z,63.85
2024-03-06T08:54:17.065Z,67.02
2024-03-06T08:56:44.885Z,66.79
2024-03-06T08:59:11.501Z,68.06
2024-03-06T09:01:38.093Z,64.65
2024-03-06T09:04:04.820Z,65.49
2024-03-06T09:06:31.415Z,67.90
2024-03-06T09:08:57.979Z,66.65
2024-03-06T09:11:26.038Z,66.97
2024-03-06T09:13:52.671Z,64.43
2024-03-06T09:16:19.419Z,64.61
2024-03-06T09:18:45.973Z,64.97
2024-03-06T09:21:12.533Z,65.58
2024-03-06T09:23:39.219Z,65.66
2024-03-06T09:26:07.088Z,65.07
2024-03-06T09:28:35.206Z,65.78
2024-03-06T09:31:02.447Z,66.30
2024-03-06T09:33:29.033Z,66.72
2024-03-06T09:35:58.542Z,69.05
2024-03-06T09:38:25.251Z,66.01
2024-03-06T09:40:52.966Z,67.94
2024-03-06T09:43:19.590Z,67.05
2024-03-06T09:45:49.782Z,66.74
2024-03-06T09:48:17.686Z,67.40
2024-03-06T09:50:46.488Z,65.84
2024-03-06T09:53:13.902Z,66.42
2024-03-06T09:55:42.082Z,66.77
2024-03-06T09:58:09.686Z,66.78
2024-03-06T10:00:36.863Z,66.05
2024-03-06T10:03:09.599Z,66.18
2024-03-06T10:05:36.392Z,65.25
2024-03-06T10:08:03.385Z,66.46
2024-03-06T10:10:29.974Z,65.35
2024-03-06T10:12:58.502Z,64.99
2024-03-06T10:15:27.644Z,65.88
2024-03-06T10:17:54.363Z,64.40
2024-03-06T10:20:23.660Z,64.86
2024-03-06T10:22:53.942Z,65.14
2024-03-06T10:25:22.809Z,64.12
2024-03-06T10:28:04.337Z,63.70
2024-03-06T10:30:31.852Z,63.42
2024-03-06T10:32:59.445Z,62.60
2024-03-06T10:35:27.453Z,63.33
2024-03-06T10:37:55.707Z,62.90
2024-03-06T10:40:24.032Z,60.17
2024-03-06T10:42:50.748Z,59.86
2024-03-06T10:45:17.830Z,59.68
2024-03-06T10:47:51.413Z,60.39
2024-03-06T10:50:19.812Z,61.54
2024-03-06T10:52:48.461Z,60.37
2024-03-06T10:55:16.830Z,60.99
2024-03-06T10:57:44.094Z,59.63
2024-03-06T11:00:11.241Z,62.34
2024-03-06T11:02:39.056Z,62.33
2024-03-06T11:05:06.711Z,60.72
2024-03-06T11:07:33.931Z,59.77
2024-03-06T11:10:02.568Z,61.22
2024-03-06T11:12:36.971Z,58.37
2024-03-06T11:15:10.323Z,57.01
2024-03-06T11:17:37.672Z,58.33
2024-03-06T11:20:26.772Z,56.83
2024-03-06T11:23:11.993Z,57.98
2024-03-06T11:26:05.439Z,58.98
2024-03-06T11:28:33.932Z,55.97
2024-03-06T11:31:02.545Z,56.44
2024-03-06T11:33:39.617Z,58.21
2024-03-06T11:36:19.983Z,56.23
2024-03-06T11:38:53.999Z,55.73
2024-03-06T11:41:25.758Z,57.22
2024-03-06T11:43:56.933Z,55.00
2024-03-06T11:46:24.522Z,53.79
2024-03-06T11:48:55.121Z,54.40
2024-03-06T11:51:22.224Z,53.55
2024-03-06T11:53:50.764Z,54.41
2024-03-06T11:56:18.538Z,54.74
2024-03-06T11:58:49.300Z,54.93
2024-03-06T12:01:16.463Z,52.40
2024-03-06T12:03:43.408Z,53.13
2024-03-06T12:06:10.456Z,56.41
2024-03-06T12:08:39.861Z,53.04
2024-03-06T12:11:06.703Z,55.21
2024-03-06T12:13:33.647Z,55.80
2024-03-06T12:16:05.245Z,57.53
2024-03-06T12:18:31.901Z,55.53
2024-03-06T12:21:01.753Z,56.64
2024-03-06T12:23:28.401Z,56.08
2024-03-06T12:28:31.811Z,55.38
2024-03-06T12:31:02.095Z,56.42
2024-03-06T12:33:30.133Z,55.35
2024-03-06T12:36:04.150Z,54.92
2024-03-06T12:38:30.978Z,56.00
2024-03-06T12:40:57.602Z,55.60
2024-03-06T12:43:25.240Z,54.96
2024-03-06T12:45:52.062Z,54.43
2024-03-06T12:48:18.723Z,55.71
2024-03-06T12:50:52.323Z,54.98
2024-03-06T12:53:19.855Z,54.24
2024-03-06T12:55:46.929Z,52.63
2024-03-06T12:58:13.636Z,51.82
2024-03-06T13:00:40.452Z,52.41
2024-03-06T13:03:07.777Z,53.37
2024-03-06T13:05:34.532Z,52.16
2024-03-06T13:08:02.732Z,51.26
2024-03-06T13:10:29.460Z,50.80
2024-03-06T13:12:56.110Z,50.73
2024-03-06T13:15:23.159Z,52.46
2024-03-06T13:17:49.944Z,51.25
2024-03-06T13:20:16.987Z,52.89
2024-03-06T13:22:45.194Z,53.07
2024-03-06T13:25:13.177Z,50.84
2024-03-06T13:27:39.692Z,49.86
2024-03-06T13:30:09.350Z,51.36
2024-03-06T13:32:36.313Z,49.33
2024-03-06T13:35:03.394Z,50.11
2024-03-06T13:37:30.143Z,49.92
2024-03-06T13:40:01.572Z,50.08
2024-03-06T13:42:29.741Z,51.16
2024-03-06T13:44:56.887Z,50.10
2024-03-06T13:47:23.473Z,49.74
2024-03-06T13:49:50.422Z,49.57
2024-03-06T13:52:21.056Z,48.33
2024-03-06T13:54:51.078Z,50.12
2024-03-06T13:57:17.639Z,50.08
2024-03-06T13:59:45.770Z,47.93
2024-03-06T14:02:12.474Z,45.41
2024-03-06T14:04:39.088Z,47.14
2024-03-06T14:07:05.767Z,46.78
2024-03-06T14:09:32.424Z,46.06
2024-03-06T14:11:59.419Z,45.91
2024-03-06T14:14:26.438Z,47.66
2024-03-06T14:16:54.479Z,46.45
2024-03-06T14:19:22.669Z,45.69
2024-03-06T14:21:49.234Z,46.28
2024-03-06T14:24:15.967Z,46.53
2024-03-06T14:26:42.957Z,45.71
2024-03-06T14:29:10.790Z,45.99
2024-03-06T14:31:37.732Z,44.68
2024-03-06T14:34:06.926Z,44.91
2024-03-06T14:36:35.258Z,45.03
2024-03-06T14:39:02.089Z,47.62
2024-03-06T14:41:28.825Z,45.68
2024-03-06T14:43:55.569Z,45.48
2024-03-06T14:46:22.271Z,45.52
2024-03-06T14:48:48.969Z,46.89
2024-03-06T14:51:16.992Z,46.21
2024-03-06T14:53:43.804Z,46.48
2024-03-06T14:56:11.926Z,46.59
2024-03-06T14:58:39.066Z,47.39
2024-03-06T15:01:06.167Z,48.95
2024-03-06T15:03:32.898Z,46.51
2024-03-06T15:05:59.572Z,47.66
2024-03-06T15:08:27.630Z,47.32
2024-03-06T15:10:55.192Z,48.25
2024-03-06T15:13:23.884Z,48.29
2024-03-06T15:15:51.693Z,46.75
2024-03-06T15:18:18.850Z,48.96
2024-03-06T15:20:45.825Z,47.49
2024-03-06T15:23:12.672Z,47.26
2024-03-06T15:25:40.787Z,46.89
2024-03-06T15:28:07.565Z,47.94
2024-03-06T15:30:35.641Z,46.72
2024-03-06T15:33:04.189Z,45.53
2024-03-06T15:35:31.061Z,45.84
2024-03-06T15:37:57.690Z,45.44
2024-03-06T15:40:24.373Z,45.75
2024-03-06T15:42:54.250Z,45.75
2024-03-06T15:45:23.258Z,46.11
2024-03-06T15:47:49.953Z,47.16
2024-03-06T15:50:16.780Z,45.50
2024-03-06T15:52:43.467Z,46.57
2024-03-06T15:55:10.778Z,46.79
2024-03-06T15:57:37.440Z,46.61
2024-03-06T16:00:10.505Z,46.65
2024-03-06T16:02:37.144Z,46.87
2024-03-06T16:05:04.124Z,46.67
2024-03-06T16:07:34.520Z,46.79
2024-03-06T16:10:02.458Z,47.38
2024-03-06T16:12:29.066Z,47.95
2024-03-06T16:14:55.785Z,47.34
2024-03-06T16:17:23.731Z,46.59
2024-03-06T16:19:50.340Z,47.21
2024-03-06T16:22:16.857Z,47.56
2024-03-06T16:24:44.004Z,48.29
2024-03-06T16:27:10.453Z,46.60
2024-03-06T16:29:37.143Z,45.71
2024-03-06T16:32:04.451Z,47.18
2024-03-06T16:34:33.700Z,46.93
2024-03-06T16:37:00.731Z,46.94
2024-03-06T16:39:27.341Z,46.92
2024-03-06T16:41:53.961Z,47.23
2024-03-06T16:44:21.970Z,47.82
2024-03-06T16:46:50.095Z,47.68
2024-03-06T16:49:16.611Z,47.07
2024-03-06T16:51:44.589Z,49.21
2024-03-06T16:54:11.127Z,48.26
2024-03-06T16:56:39.309Z,48.46
2024-03-06T16:59:08.193Z,48.19
2024-03-06T17:01:34.925Z,49.50
2024-03-06T17:04:01.591Z,49.78
2024-03-06T17:06:32.232Z,50.89
2024-03-06T17:09:00.296Z,51.03
2024-03-06T17:11:27.002Z,51.75
2024-03-06T17:13:53.735Z,51.68
2024-03-06T17:16:20.319Z,52.11
2024-03-06T17:18:46.986Z,53.39
2024-03-06T17:21:13.812Z,53.54
2024-03-06T17:23:40.416Z,53.99
2024-03-06T17:26:11.711Z,54.42
2024-03-06T17:28:41.158Z,53.72
2024-03-06T17:31:08.365Z,55.01
2024-03-06T17:33:34.794Z,55.53
2024-03-06T17:36:01.482Z,54.73
2024-03-06T17:38:29.081Z,56.13
2024-03-06T17:40:55.683Z,56.39
2024-03-06T17:43:23.618Z,55.97
2024-03-06T17:45:50.463Z,56.98
2024-03-06T17:48:17.170Z,57.09
2024-03-06T17:50:45.923Z,57.52
2024-03-06T17:53:14.211Z,57.24
2024-03-06T17:55:40.890Z,57.52
2024-03-06T17:58:07.950Z,57.88
2024-03-06T18:00:35.880Z,58.34
2024-03-06T18:03:02.570Z,58.87
2024-03-06T18:05:29.208Z,59.39
2024-03-06T18:07:56.671Z,60.40
2024-03-06T18:10:24.051Z,60.45
2024-03-06T18:12:50.430Z,60.53
2024-03-06T18:15:17.161Z,61.13
2024-03-06T18:17:45.177Z,61.57
2024-03-06T18:20:12.595Z,61.84
2024-03-06T18:22:39.242Z,62.34
2024-03-06T18:25:07.974Z,62.62
2024-03-06T18:27:35.008Z,62.78
2024-03-06T18:30:01.641Z,62.44
2024-03-06T18:32:29.888Z,63.03
2024-03-06T18:34:59.025Z,63.61
2024-03-06T18:37:26.040Z,63.95
2024-03-06T18:39:54.433Z,64.07
2024-03-06T18:42:22.266Z,64.06
2024-03-06T18:44:49.795Z,64.55
2024-03-06T18:47:16.788Z,64.46
2024-03-06T18:49:43.434Z,64.82
2024-03-06T18:52:11.670Z,65.07
2024-03-06T18:54:40.591Z,65.33
2024-03-06T18:57:07.619Z,65.02
2024-03-06T18:59:34.546Z,65.53
2024-03-06T19:02:01.398Z,65.64
2024-03-06T19:04:28.004Z,66.04
2024-03-06T19:06:54.614Z,66.29
2024-03-06T19:09:22.616Z,66.39
2024-03-06T19:11:51.471Z,67.04
2024-03-06T19:14:18.299Z,67.61
2024-03-06T19:16:45.044Z,67.87
2024-03-06T19:19:11.661Z,68.06
2024-03-06T19:21:38.407Z,68.47
2024-03-06T19:24:05.371Z,68.54
2024-03-06T19:26:36.645Z,68.57
2024-03-06T19:29:03.544Z,68.94
2024-03-06T19:31:31.966Z,68.41
2024-03-06T19:33:59.515Z,68.85
2024-03-06T19:36:26.275Z,69.23
2024-03-06T19:38:52.855Z,69.32
2024-03-06T19:41:19.604Z,69.44
2024-03-06T19:43:47.575Z,69.11
2024-03-06T19:46:14.122Z,69.71
2024-03-06T19:48:41.532Z,70.13
2024-03-06T19:51:09.221Z,69.85
2024-03-06T19:53:35.980Z,69.95
2024-03-06T19:56:03.046Z,70.10
2024-03-06T19:58:29.618Z,70.78
2024-03-06T20:00:57.669Z,71.31
2024-03-06T20:03:24.194Z,71.22
2024-03-06T20:05:50.898Z,71.28
2024-03-06T20:08:17.758Z,71.84
2024-03-06T20:10:44.563Z,72.60
2024-03-06T20:13:11.224Z,72.42
2024-03-06T20:15:37.801Z,72.37
2024-03-06T20:18:09.075Z,72.76
2024-03-06T20:20:35.748Z,72.61
2024-03-06T20:23:08.093Z,72.28
2024-03-06T20:25:35.478Z,73.12
2024-03-06T20:28:02.213Z,73.02
2024-03-06T20:30:28.852Z,73.13
2024-03-06T20:32:55.737Z,73.48
2024-03-06T20:35:24.910Z,73.00
2024-03-06T20:37:51.767Z,73.08
2024-03-06T20:40:18.568Z,72.67
2024-03-06T20:42:45.980Z,73.23
2024-03-06T20:45:14.012Z,73.94
2024-03-06T20:47:44.033Z,73.52
2024-03-06T20:50:11.658Z,74.29
2024-03-06T20:52:40.978Z,74.75
2024-03-06T20:55:08.657Z,74.64
2024-03-06T20:57:35.231Z,74.37
2024-03-06T21:00:01.864Z,75.11
2024-03-06T21:02:28.436Z,74.99
2024-03-06T21:04:55.492Z,75.18
2024-03-06T21:07:22.349Z,75.07
2024-03-06T21:09:50.375Z,75.53
2024-03-06T21:12:17.179Z,75.79
2024-03-06T21:14:44.897Z,75.88
2024-03-06T21:17:11.727Z,76.21
2024-03-06T21:19:38.643Z,75.94
2024-03-06T21:22:05.902Z,75.31
2024-03-06T21:24:33.665Z,75.95
2024-03-06T21:27:03.250Z,76.43
2024-03-06T21:29:30.807Z,75.99
2024-03-06T21:31:57.626Z,76.37
2024-03-06T21:34:24.253Z,76.16
2024-03-06T21:36:50.915Z,76.57
2024-03-06T21:39:17.442Z,77.40
2024-03-06T21:41:44.214Z,77.51
2024-03-06T21:44:12.255Z,77.46
2024-03-06T21:46:38.962Z,77.04
2024-03-06T21:49:05.590Z,77.47
2024-03-06T21:51:32.129Z,77.91
2024-03-06T21:53:59.639Z,77.19
2024-03-06T21:56:26.318Z,77.02
2024-03-06T21:58:52.968Z,76.96
2024-03-06T22:01:21.901Z,77.55
2024-03-06T22:03:48.544Z,77.30
2024-03-06T22:06:15.287Z,77.66
2024-03-06T22:08:43.609Z,77.05
2024-03-06T22:11:12.555Z,77.65
2024-03-06T22:13:39.386Z,77.73
2024-03-06T22:16:06.238Z,78.03
2024-03-06T22:18:34.241Z,78.19
2024-03-06T22:21:00.898Z,78.27
2024-03-06T22:23:29.953Z,78.31
2024-03-06T22:25:56.606Z,78.11
2024-03-06T22:28:23.245Z,78.13
2024-03-06T22:30:49.852Z,77.48
2024-03-06T22:33:16.469Z,78.25
2024-03-06T22:35:45.962Z,77.93
2024-03-06T22:38:12.974Z,78.08
2024-03-06T22:40:39.610Z,78.39
2024-03-06T22:43:06.441Z,78.21
2024-03-06T22:45:33.267Z,78.63
2024-03-06T22:48:00.108Z,78.52
2024-03-06T22:50:27.103Z,78.24
2024-03-06T22:52:55.071Z,78.21
2024-03-06T22:55:22.299Z,78.44
2024-03-06T22:57:48.915Z,78.34
2024-03-06T23:00:30.230Z,78.01
2024-03-06T23:02:57.758Z,78.36
2024-03-06T23:05:25.317Z,78.87
2024-03-06T23:07:52.314Z,78.89
2024-03-06T23:10:20.731Z,79.39
2024-03-06T23:12:47.958Z,79.47
2024-03-06T23:15:15.980Z,79.03
2024-03-06T23:17:45.775Z,78.70
2024-03-06T23:20:15.129Z,79.59
2024-03-06T23:22:42.372Z,79.73
2024-03-06T23:25:09.917Z,79.67
2024-03-06T23:27:37.983Z,79.41
2024-03-06T23:30:08.234Z,79.47
2024-03-06T23:32:35.673Z,79.37
2024-03-06T23:35:04.779Z,79.99
2024-03-06T23:37:31.726Z,80.17
2024-03-06T23:39:58.281Z,79.57
2024-03-06T23:42:24.820Z,79.99
2024-03-06T23:44:52.749Z,80.07
2024-03-06T23:47:19.377Z,80.51
2024-03-06T23:49:45.904Z,80.77
2024-03-06T23:52:16.790Z,81.17
2024-03-06T23:54:43.397Z,81.21
2024-03-06T23:57:10.228Z,80.49
2024-03-06T23:59:36.864Z,80.73
